Time;durP1;ratioP1;P1;durP2;ratioP2;P2;SDS_P1;SDS_P2;PMS_P1;PMS_P2;Temp;Humidity;BMP_temperature;BMP_pressure;BME280_temperature;BME280_humidity;BME280_pressure;Samples;Min_cycle;Max_cycle;Signal;HPM_P1;HPM_P2
2023/07/03 00:00:15;;;;;;;0.70;0.70;;;;;;;18.61;100.00;99543.13;6056127;23;19999;-95
2023/07/03 00:02:42;;;;;;;1.42;1.33;;;;;;;18.66;100.00;99538.81;6081820;23;20014;-96
2023/07/03 00:05:09;;;;;;;0.57;0.50;;;;;;;18.87;100.00;99559.84;6078642;23;20017;-96
2023/07/03 00:07:36;;;;;;;1.17;0.93;;;;;;;19.01;100.00;99578.53;6054555;23;20069;-95
2023/07/03 00:10:04;;;;;;;1.13;1.05;;;;;;;18.82;100.00;99552.16;6078950;23;19998;-95
2023/07/03 00:12:30;;;;;;;2.35;1.25;;;;;;;19.06;100.00;99577.78;6099249;23;20020;-96
2023/07/03 00:14:56;;;;;;;0.52;0.52;;;;;;;18.98;100.00;99573.94;6078454;23;20359;-95
2023/07/03 00:17:22;;;;;;;3.42;1.02;;;;;;;18.93;100.00;99575.44;6079951;23;20006;-95
2023/07/03 00:19:48;;;;;;;1.60;1.50;;;;;;;18.85;100.00;99562.38;6076481;23;20014;-96
2023/07/03 00:22:13;;;;;;;2.10;1.23;;;;;;;18.86;100.00;99561.13;6050514;23;20193;-93
2023/07/03 00:24:39;;;;;;;1.75;0.98;;;;;;;19.04;100.00;99602.84;6102464;23;20022;-95
2023/07/03 00:27:05;;;;;;;1.75;0.70;;;;;;;18.80;100.00;99563.16;6078593;23;20391;-94
2023/07/03 00:29:31;;;;;;;1.10;0.75;;;;;;;19.15;100.00;99616.94;6107094;23;20458;-95
2023/07/03 00:31:58;;;;;;;1.13;1.02;;;;;;;18.72;100.00;99564.91;6081452;23;20033;-95
2023/07/03 00:34:26;;;;;;;0.80;0.60;;;;;;;18.72;100.00;99570.53;6077120;23;20022;-95
2023/07/03 00:36:51;;;;;;;3.47;1.23;;;;;;;18.96;100.00;99596.94;6073900;23;20002;-95
2023/07/03 00:39:17;;;;;;;2.35;1.05;;;;;;;18.71;100.00;99568.97;6051224;23;20362;-95
2023/07/03 00:41:43;;;;;;;1.40;0.90;;;;;;;18.91;100.00;99605.34;6077899;23;20026;-94
2023/07/03 00:44:14;;;;;;;1.75;1.08;;;;;;;18.70;100.00;99570.25;6079320;23;20017;-95
2023/07/03 00:46:42;;;;;;;3.30;1.05;;;;;;;18.85;100.00;99593.28;6077282;23;20049;-95
2023/07/03 00:49:11;;;;;;;6.15;1.05;;;;;;;18.78;100.00;99616.25;6056474;23;19994;-95
2023/07/03 00:51:40;;;;;;;1.48;1.23;;;;;;;18.57;100.00;99602.34;6075776;23;20018;-96
2023/07/03 00:54:06;;;;;;;4.05;1.25;;;;;;;18.43;100.00;99582.84;6075258;23;20028;-95
2023/07/03 00:56:32;;;;;;;1.92;1.35;;;;;;;18.31;100.00;99559.56;6076202;23;20395;-96
2023/07/03 00:58:58;;;;;;;1.38;0.98;;;;;;;18.30;100.00;99562.84;6074997;23;20419;-96
2023/07/03 01:01:43;;;;;;;1.88;0.93;;;;;;;18.24;100.00;99554.38;6051513;23;20021;-96
2023/07/03 01:04:17;;;;;;;0.52;0.52;;;;;;;18.40;100.00;99570.56;6075339;23;20014;-96
2023/07/03 01:07:12;;;;;;;0.43;0.22;;;;;;;18.32;100.00;99575.09;6074466;23;20109;-96
2023/07/03 01:09:45;;;;;;;1.23;1.13;;;;;;;18.06;100.00;99554.78;6050396;23;20014;-96
2023/07/03 01:12:10;;;;;;;;;;;;;;;18.37;100.00;99602.47;6077398;23;20024;-94
2023/07/03 01:14:38;;;;;;;0.60;0.32;;;;;;;18.10;100.00;99566.56;6074969;23;19952;-95
2023/07/03 01:17:09;;;;;;;0.70;0.47;;;;;;;18.10;100.00;99560.94;6074736;23;20032;-95
2023/07/03 01:19:39;;;;;;;0.55;0.55;;;;;;;17.94;100.00;99536.34;6076793;23;20314;-95
2023/07/03 01:22:10;;;;;;;0.65;0.45;;;;;;;18.30;100.00;99591.69;6073634;23;20021;-95
2023/07/03 01:24:42;;;;;;;1.52;1.23;;;;;;;17.98;100.00;99531.28;6098089;23;20021;-96
2023/07/03 01:27:10;;;;;;;1.98;0.82;;;;;;;17.97;100.00;99526.91;6074581;23;20018;-96
2023/07/03 01:29:39;;;;;;;0.80;0.47;;;;;;;18.27;100.00;99561.81;6076505;23;20401;-96
2023/07/03 01:32:07;;;;;;;0.63;0.63;;;;;;;18.27;100.00;99553.41;6078291;23;20020;-95
2023/07/03 01:34:33;;;;;;;0.73;0.45;;;;;;;17.99;100.00;99525.16;6082879;23;20073;-95
2023/07/03 01:37:00;;;;;;;0.32;0.32;;;;;;;17.98;100.00;99525.66;6081387;23;20064;-94
2023/07/03 01:39:27;;;;;;;0.93;0.93;;;;;;;18.28;100.00;99574.56;6080294;23;20033;-96
2023/07/03 01:41:53;;;;;;;0.55;0.50;;;;;;;17.89;100.00;99523.03;6057584;23;20072;-96
2023/07/03 01:44:19;;;;;;;1.13;0.65;;;;;;;17.85;100.00;99522.50;6059931;23;20024;-96
2023/07/03 01:46:45;;;;;;;0.45;0.43;;;;;;;17.91;100.00;99531.75;6087636;23;20093;-94
2023/07/03 01:49:14;;;;;;;0.80;0.63;;;;;;;17.92;100.00;99522.03;6089093;23;20039;-96
2023/07/03 01:51:51;;;;;;;0.57;0.57;;;;;;;18.14;100.00;99561.47;6064199;23;20018;-96
2023/07/03 01:54:27;;;;;;;0.30;0.28;;;;;;;17.98;100.00;99532.03;6090379;23;20093;-96
2023/07/03 01:56:54;;;;;;;4.95;1.33;;;;;;;17.98;100.00;99525.66;6085927;23;20029;-95
2023/07/03 01:59:24;;;;;;;2.33;0.77;;;;;;;17.97;100.00;99521.31;6091241;23;20458;-96
2023/07/03 02:02:10;;;;;;;0.68;0.68;;;;;;;17.97;100.00;99515.69;6087377;23;20095;-96
2023/07/03 02:05:10;;;;;;;3.40;0.90;;;;;;;18.20;100.00;99565.09;6112293;23;20014;-95
2023/07/03 02:07:37;;;;;;;1.65;0.60;;;;;;;17.74;100.00;99508.41;6078110;23;20037;-95
2023/07/03 02:10:04;;;;;;;1.27;0.52;;;;;;;17.70;100.00;99517.03;6082501;23;20014;-95
2023/07/03 02:12:30;;;;;;;0.50;0.43;;;;;;;17.64;100.00;99513.41;6081240;23;20073;-96
2023/07/03 02:15:00;;;;;;;3.78;1.27;;;;;;;17.77;100.00;99544.63;6076993;23;20021;-95
2023/07/03 02:17:26;;;;;;;1.00;0.75;;;;;;;17.63;100.00;99523.84;6053398;23;20013;-95
2023/07/03 02:19:52;;;;;;;2.10;1.05;;;;;;;17.55;100.00;99530.41;6056579;23;20005;-96
2023/07/03 02:22:18;;;;;;;0.73;0.73;;;;;;;17.43;100.00;99526.72;6082274;23;20006;-94
2023/07/03 02:24:44;;;;;;;0.75;0.75;;;;;;;17.47;100.00;99538.47;6080925;23;20431;-96
2023/07/03 02:27:10;;;;;;;0.70;0.50;;;;;;;17.43;100.00;99549.13;6082673;23;20010;-96
2023/07/03 02:29:37;;;;;;;1.13;1.02;;;;;;;17.52;100.00;99574.22;6072609;23;20398;-94
2023/07/03 02:32:06;;;;;;;2.65;0.63;;;;;;;17.67;100.00;99607.81;6095086;23;20026;-94
2023/07/03 02:34:32;;;;;;;0.75;0.63;;;;;;;17.39;100.00;99579.44;6072153;23;20016;-94
2023/07/03 02:36:59;;;;;;;0.85;0.75;;;;;;;17.39;100.00;99604.66;6071485;23;20018;-94
2023/07/03 02:39:25;;;;;;;0.98;0.73;;;;;;;17.40;100.00;99594.22;6096471;23;20014;-95
2023/07/03 02:41:51;;;;;;;2.30;1.30;;;;;;;17.38;100.00;99602.38;6072945;23;20442;-94
2023/07/03 02:44:16;;;;;;;1.90;1.42;;;;;;;17.44;100.00;99598.34;6096186;23;20014;-94
2023/07/03 02:46:42;;;;;;;0.52;0.50;;;;;;;17.16;100.00;99552.44;6096030;23;20419;-94
2023/07/03 02:49:09;;;;;;;0.73;0.73;;;;;;;17.43;100.00;99605.22;6072177;23;20104;-94
2023/07/03 02:51:35;;;;;;;1.85;1.38;;;;;;;17.17;100.00;99562.41;6047876;23;20033;-94
2023/07/03 02:54:04;;;;;;;1.20;0.80;;;;;;;17.39;100.00;99598.31;6071219;23;20038;-94
2023/07/03 02:56:30;;;;;;;1.10;1.08;;;;;;;17.31;100.00;99581.13;6072767;23;20081;-94
2023/07/03 02:58:55;;;;;;;0.95;0.75;;;;;;;17.28;100.00;99587.75;6047235;23;20037;-95
2023/07/03 03:01:27;;;;;;;0.65;0.65;;;;;;;17.45;100.00;99613.91;6071245;23;20076;-93
2023/07/03 03:03:55;;;;;;;0.95;0.90;;;;;;;17.40;100.00;99603.41;6067419;23;20018;-94
2023/07/03 03:06:21;;;;;;;7.45;0.80;;;;;;;17.26;100.00;99579.06;6069096;23;20017;-93
2023/07/03 03:08:48;;;;;;;2.70;0.82;;;;;;;17.41;100.00;99596.53;6045031;23;20014;-95
2023/07/03 03:11:15;;;;;;;0.55;0.55;;;;;;;17.56;100.00;99614.03;6044502;23;20022;-94
2023/07/03 03:13:41;;;;;;;2.22;1.00;;;;;;;17.56;100.00;99602.81;6044266;23;20418;-94
2023/07/03 03:16:07;;;;;;;1.58;1.10;;;;;;;17.49;100.00;99585.66;6091712;23;20006;-93
2023/07/03 03:18:32;;;;;;;0.52;0.52;;;;;;;17.53;100.00;99592.59;6046164;23;20022;-94
2023/07/03 03:20:58;;;;;;;1.17;1.08;;;;;;;17.47;100.00;99585.41;6067959;23;20037;-94
2023/07/03 03:23:24;;;;;;;0.60;0.60;;;;;;;17.47;100.00;99591.75;6068491;23;20774;-93
2023/07/03 03:25:49;;;;;;;1.08;0.70;;;;;;;17.50;100.00;99610.41;6045603;23;20014;-92
2023/07/03 03:28:15;;;;;;;0.20;0.20;;;;;;;17.27;100.00;99585.44;6045948;23;20003;-93
2023/07/03 03:30:41;;;;;;;0.75;0.75;;;;;;;17.56;100.00;99614.03;6043824;23;20021;-93
2023/07/03 03:33:07;;;;;;;1.45;0.93;;;;;;;17.26;100.00;99584.69;6069422;23;20507;-93
2023/07/03 03:35:32;;;;;;;1.73;1.40;;;;;;;17.40;100.00;99622.25;6092594;23;20012;-94
2023/07/03 03:37:58;;;;;;;0.90;0.88;;;;;;;17.18;100.00;99589.94;6045289;23;20029;-94
2023/07/03 03:40:24;;;;;;;4.45;1.35;;;;;;;17.45;100.00;99625.13;6067935;23;20465;-94
2023/07/03 03:42:50;;;;;;;0.45;0.43;;;;;;;17.51;100.00;99628.00;6069228;23;20022;-93
2023/07/03 03:45:16;;;;;;;0.40;0.38;;;;;;;17.48;100.00;99624.13;6042930;23;20472;-92
2023/07/03 03:47:42;;;;;;;0.75;0.75;;;;;;;17.45;100.00;99605.50;6066780;23;20089;-93
2023/07/03 03:50:08;;;;;;;0.70;0.70;;;;;;;17.49;100.00;99602.47;6067522;23;20447;-92
2023/07/03 03:52:38;;;;;;;0.30;0.30;;;;;;;17.58;100.00;99628.38;6069016;23;20018;-94
2023/07/03 03:55:04;;;;;;;0.77;0.75;;;;;;;17.51;100.00;99617.53;6066733;23;20022;-93
2023/07/03 03:57:30;;;;;;;0.40;0.40;;;;;;;17.45;100.00;99616.72;6068606;23;20117;-91
2023/07/03 03:59:55;;;;;;;0.77;0.77;;;;;;;17.56;100.00;99622.44;6090229;23;20435;-93
2023/07/03 04:02:21;;;;;;;0.68;0.60;;;;;;;17.56;100.00;99619.63;6043621;23;20041;-92
2023/07/03 04:04:46;;;;;;;1.25;1.08;;;;;;;17.48;100.00;99607.31;6043492;23;20066;-93
2023/07/03 04:07:12;;;;;;;0.22;0.20;;;;;;;17.64;100.00;99615.16;6067851;23;20018;-92
2023/07/03 04:09:38;;;;;;;1.17;1.08;;;;;;;17.79;100.00;99631.88;6067375;23;20014;-92
2023/07/03 04:12:04;;;;;;;0.60;0.60;;;;;;;17.90;100.00;99639.63;6043713;23;20045;-91
2023/07/03 04:14:29;;;;;;;0.52;0.52;;;;;;;17.81;100.00;99614.53;6066974;23;20329;-95
2023/07/03 04:16:57;;;;;;;1.42;1.05;;;;;;;18.01;100.00;99637.69;6066907;23;20048;-93
2023/07/03 04:19:23;;;;;;;0.47;0.47;;;;;;;17.93;100.00;99630.19;6067921;23;20089;-95
2023/07/03 04:21:49;;;;;;;0.60;0.60;;;;;;;17.98;100.00;99632.28;6091857;23;20021;-95
2023/07/03 04:24:14;;;;;;;2.20;1.20;;;;;;;18.13;100.00;99647.72;6043498;23;20010;-94
2023/07/03 04:26:41;;;;;;;0.43;0.43;;;;;;;18.08;100.00;99608.38;6091773;23;20367;-94
2023/07/03 04:29:08;;;;;;;0.20;0.20;;;;;;;18.28;100.00;99650.38;6114674;23;20018;-94
2023/07/03 04:31:33;;;;;;;1.48;0.65;;;;;;;18.34;100.00;99647.63;6066928;23;20017;-93
2023/07/03 04:33:59;;;;;;;1.13;0.60;;;;;;;18.40;100.00;99656.88;6067757;23;20015;-94
2023/07/03 04:36:25;;;;;;;0.35;0.35;;;;;;;18.47;100.00;99654.38;6092683;23;20026;-94
2023/07/03 04:38:56;;;;;;;1.23;0.35;;;;;;;18.50;100.00;99661.00;6068374;23;20037;-94
2023/07/03 04:41:23;;;;;;;0.65;0.65;;;;;;;18.45;100.00;99654.09;6069608;23;20018;-93
2023/07/03 04:43:51;;;;;;;1.80;1.13;;;;;;;18.42;100.00;99641.06;6093527;23;20018;-93
2023/07/03 04:46:18;;;;;;;0.60;0.60;;;;;;;18.45;100.00;99653.31;6089445;23;20007;-93
2023/07/03 04:48:45;;;;;;;0.43;0.43;;;;;;;18.43;100.00;99650.25;6090999;23;20370;-92
2023/07/03 04:51:11;;;;;;;0.88;0.88;;;;;;;18.58;100.00;99674.13;6091711;23;20361;-94
2023/07/03 04:53:40;;;;;;;0.40;0.40;;;;;;;18.55;100.00;99652.66;6067044;23;20024;-94
2023/07/03 04:56:07;;;;;;;3.35;2.00;;;;;;;18.48;100.00;99658.69;6043536;23;20011;-93
2023/07/03 04:58:33;;;;;;;0.65;0.65;;;;;;;18.51;100.00;99662.56;6091396;23;20010;-94
2023/07/03 05:00:58;;;;;;;1.85;0.88;;;;;;;18.50;100.00;99661.78;6066000;23;20016;-94
2023/07/03 05:03:24;;;;;;;0.60;0.60;;;;;;;18.55;100.00;99652.66;6046911;23;20328;-94
2023/07/03 05:05:49;;;;;;;2.15;1.17;;;;;;;18.56;100.00;99659.78;6068278;23;20077;-94
2023/07/03 05:08:15;;;;;;;0.52;0.52;;;;;;;18.68;100.00;99671.13;6066951;23;20446;-93
2023/07/03 05:10:43;;;;;;;1.35;0.65;;;;;;;18.65;100.00;99667.25;6044384;23;20372;-95
2023/07/03 05:13:09;;;;;;;7.38;1.85;;;;;;;18.55;100.00;99657.50;6091393;23;20014;-94
2023/07/03 05:15:34;;;;;;;1.05;0.95;;;;;;;18.56;100.00;99664.66;6072217;23;20012;-93
2023/07/03 05:18:00;;;;;;;0.65;0.65;;;;;;;18.61;100.00;99666.72;6070733;23;20052;-95
2023/07/03 05:20:29;;;;;;;0.80;0.80;;;;;;;18.64;100.00;99665.75;6047775;23;20002;-95
2023/07/03 05:22:55;;;;;;;0.50;0.50;;;;;;;18.72;100.00;99677.28;6079652;23;20010;-91
2023/07/03 05:25:24;;;;;;;1.30;0.80;;;;;;;18.59;100.00;99658.03;6067696;23;20026;-94
2023/07/03 05:27:50;;;;;;;0.80;0.80;;;;;;;18.77;100.00;99679.34;6044829;23;20014;-94
2023/07/03 05:30:16;;;;;;;0.65;0.65;;;;;;;18.99;100.00;99701.94;6067415;23;20459;-95
2023/07/03 05:32:42;;;;;;;2.92;1.73;;;;;;;18.92;100.00;99702.44;6045899;23;20257;-93
2023/07/03 05:35:08;;;;;;;1.00;0.93;;;;;;;19.05;100.00;99711.16;6069429;23;20025;-94
2023/07/03 05:37:35;;;;;;;1.02;0.77;;;;;;;18.85;100.00;99683.97;6070374;23;20049;-94
2023/07/03 05:40:03;;;;;;;0.35;0.35;;;;;;;18.97;100.00;99682.00;6070415;23;20046;-94
2023/07/03 05:42:29;;;;;;;0.68;0.55;;;;;;;18.89;100.00;99676.09;6046476;23;20495;-96
2023/07/03 05:44:55;;;;;;;1.45;1.35;;;;;;;19.07;100.00;99692.53;6047417;23;20045;-93
2023/07/03 05:47:20;;;;;;;0.43;0.43;;;;;;;19.13;100.00;99703.06;6064112;23;20466;-88
2023/07/03 05:49:48;;;;;;;0.90;0.85;;;;;;;19.15;100.00;99695.66;6037227;23;20022;-89
2023/07/03 05:52:14;;;;;;;0.25;0.25;;;;;;;19.29;100.00;99708.72;6041559;23;20413;-89
2023/07/03 05:54:39;;;;;;;0.80;0.80;;;;;;;19.34;100.00;99722.06;6042359;23;20010;-89
2023/07/03 05:57:10;;;;;;;0.38;0.38;;;;;;;19.40;100.00;99731.31;6066653;23;20078;-88
2023/07/03 05:59:37;;;;;;;3.65;1.65;;;;;;;19.48;100.00;99729.56;6064882;23;20018;-89
2023/07/03 06:02:05;;;;;;;0.85;0.57;;;;;;;19.49;100.00;99728.28;6060582;23;20097;-88
2023/07/03 06:04:33;;;;;;;4.80;1.00;;;;;;;19.60;100.00;99738.03;6035784;23;20038;-88
2023/07/03 06:06:59;;;;;;;1.52;0.98;;;;;;;19.73;100.00;99735.53;6060250;23;20359;-88
2023/07/03 06:09:26;;;;;;;0.50;0.50;;;;;;;19.75;100.00;99735.78;6035465;23;20456;-89
2023/07/03 06:11:51;;;;;;;0.60;0.40;;;;;;;19.74;100.00;99731.44;6036201;23;20109;-89
2023/07/03 06:14:18;;;;;;;0.88;0.50;;;;;;;19.82;100.00;99743.72;6060226;23;20038;-89
2023/07/03 06:16:45;;;;;;;1.20;1.10;;;;;;;19.76;100.00;99742.97;6060726;23;20097;-90
2023/07/03 07:43:39;;;;;;;0.30;0.30;;;;;;;22.19;100.00;99752.31;6177615;23;20489;-92
2023/07/03 07:46:06;;;;;;;1.08;0.82;;;;;;;22.15;100.00;99739.75;6128732;23;20017;-92
2023/07/03 07:48:32;;;;;;;3.40;1.05;;;;;;;22.21;100.00;99734.81;6128783;23;20426;-93
2023/07/03 07:50:58;;;;;;;1.30;1.20;;;;;;;22.37;100.00;99738.81;6155591;23;20035;-92
2023/07/03 07:53:23;;;;;;;1.70;0.88;;;;;;;22.56;100.00;99748.19;6130615;23;20429;-92
2023/07/03 07:55:49;;;;;;;1.02;0.85;;;;;;;22.56;100.00;99748.19;6155580;23;20087;-93
2023/07/03 07:58:15;;;;;;;0.98;0.88;;;;;;;22.62;100.00;99741.19;6155162;23;20418;-93
2023/07/03 08:00:40;;;;;;;1.75;0.95;;;;;;;22.92;100.00;99760.22;6154943;23;20013;-92
2023/07/03 08:03:06;;;;;;;1.35;0.88;;;;;;;23.09;100.00;99777.81;6125594;23;20013;-93
2023/07/03 08:05:32;;;;;;;0.73;0.70;;;;;;;23.05;100.00;99771.66;6125737;23;20450;-92
2023/07/03 08:07:59;;;;;;;0.80;0.73;;;;;;;22.97;100.00;99765.81;6100866;23;20358;-92
2023/07/03 08:10:24;;;;;;;0.95;0.95;;;;;;;23.02;100.00;99784.78;6101411;23;20044;-92
2023/07/03 08:12:52;;;;;;;0.47;0.43;;;;;;;22.90;100.00;99789.03;6125629;23;20398;-92
2023/07/03 08:15:18;;;;;;;4.03;1.90;;;;;;;22.91;100.00;99790.56;6101470;23;20517;-93
2023/07/03 08:17:43;;;;;;;1.33;1.17;;;;;;;22.79;100.00;99772.16;6077740;23;20505;-92
2023/07/03 08:20:11;;;;;;;0.80;0.80;;;;;;;23.02;100.00;99790.44;6077575;23;20060;-92
2023/07/03 08:22:40;;;;;;;4.93;1.08;;;;;;;23.18;100.00;99798.00;6101273;23;20047;-94
2023/07/03 08:25:07;;;;;;;0.60;0.28;;;;;;;23.16;100.00;99797.00;6075446;23;20009;-92
2023/07/03 08:27:33;;;;;;;0.70;0.70;;;;;;;23.18;100.00;99786.69;6102836;23;20017;-93
2023/07/03 08:29:58;;;;;;;0.98;0.82;;;;;;;23.37;100.00;99786.00;6130559;23;20024;-93
2023/07/03 08:32:24;;;;;;;2.20;1.58;;;;;;;23.56;100.00;99781.16;6125293;23;20018;-92
2023/07/03 08:34:51;;;;;;;0.70;0.70;;;;;;;23.75;100.00;99784.00;6125077;23;20025;-92
2023/07/03 08:37:17;;;;;;;1.05;0.95;;;;;;;23.83;100.00;99790.59;6151862;23;20017;-92
2023/07/03 08:39:43;;;;;;;3.47;3.15;;;;;;;24.04;100.00;99792.38;6101512;23;20021;-91
2023/07/03 08:42:16;;;;;;;0.85;0.73;;;;;;;23.93;100.00;99758.53;6125516;23;20013;-92
2023/07/03 08:44:42;;;;;;;0.68;0.68;;;;;;;23.97;100.00;99778.06;6125603;23;20316;-94
2023/07/03 08:47:14;;;;;;;1.90;1.27;;;;;;;23.96;100.00;99791.44;6101580;23;20280;-92
2023/07/03 08:49:40;;;;;;;7.78;2.20;;;;;;;24.18;100.00;99795.31;6125628;23;20021;-93
2023/07/03 08:52:07;;;;;;;2.40;2.03;;;;;;;24.19;100.00;99806.09;6124883;23;20093;-92
2023/07/03 08:54:35;;;;;;;2.72;1.30;;;;;;;24.24;100.00;99798.81;6126049;23;20068;-92
2023/07/03 08:57:03;;;;;;;5.82;2.72;;;;;;;24.15;100.00;99809.25;6100561;23;20018;-91
2023/07/03 08:59:29;;;;;;;3.00;1.42;;;;;;;24.14;100.00;99813.38;6076216;23;20024;-92
2023/07/03 09:02:08;;;;;;;0.50;0.50;;;;;;;24.16;100.00;99815.69;6100135;23;20005;-93
2023/07/03 09:04:53;;;;;;;1.02;1.02;;;;;;;24.32;100.00;99811.84;6101030;23;20014;-93
2023/07/03 09:07:27;;;;;;;1.00;0.63;;;;;;;24.50;100.00;99810.28;6125863;23;20113;-92
2023/07/03 09:10:00;;;;;;;0.80;0.63;;;;;;;24.68;100.00;99803.03;6076669;23;20018;-91
2023/07/03 09:12:39;;;;;;;1.45;1.35;;;;;;;24.76;100.00;99806.75;6076270;23;20207;-92
2023/07/03 09:15:43;;;;;;;0.73;0.73;;;;;;;24.60;98.13;99814.25;6100104;23;20018;-92
2023/07/03 09:18:20;;;;;;;14.43;1.50;;;;;;;24.70;97.53;99809.72;6066097;23;20020;-92
2023/07/03 09:20:46;;;;;;;1.20;0.82;;;;;;;24.65;100.00;99815.47;6076568;23;20018;-92
2023/07/03 09:23:21;;;;;;;3.45;0.68;;;;;;;24.55;96.73;99815.84;6100487;23;20076;-91
2023/07/03 09:25:56;;;;;;;1.00;1.00;;;;;;;24.50;96.58;99808.22;6124560;23;20382;-93
2023/07/03 09:28:22;;;;;;;1.95;1.55;;;;;;;24.62;98.10;99803.16;6100840;23;20092;-92
2023/07/03 09:30:48;;;;;;;0.80;0.73;;;;;;;24.79;96.39;99814.22;6099632;23;20009;-93
2023/07/03 09:33:13;;;;;;;0.30;0.30;;;;;;;24.80;94.08;99807.97;6125008;23;20465;-93
2023/07/03 09:35:40;;;;;;;0.68;0.65;;;;;;;24.88;96.73;99811.75;6077030;23;20371;-92
2023/07/03 09:38:12;;;;;;;1.17;1.08;;;;;;;24.71;93.13;99808.38;6125268;23;20044;-94
2023/07/03 09:40:41;;;;;;;1.35;1.25;;;;;;;24.66;95.52;99811.34;6100048;23;20408;-93
2023/07/03 09:43:17;;;;;;;1.40;1.30;;;;;;;24.66;98.92;99806.44;6075827;23;20144;-90
2023/07/03 09:45:43;;;;;;;1.15;1.02;;;;;;;24.58;100.00;99794.19;6099727;23;20438;-93
2023/07/03 09:48:16;;;;;;;1.95;0.90;;;;;;;24.69;99.04;99811.00;6099642;23;20489;-93
2023/07/03 09:50:43;;;;;;;1.48;1.13;;;;;;;24.73;94.78;99802.94;6123095;23;20017;-93
2023/07/03 09:53:15;;;;;;;1.73;1.40;;;;;;;24.76;95.99;99815.28;6120026;23;20379;-93
2023/07/03 09:55:42;;;;;;;0.60;0.60;;;;;;;24.75;94.98;99800.31;6122683;23;20017;-93
2023/07/03 09:58:15;;;;;;;1.25;0.65;;;;;;;24.52;96.04;99793.50;6096978;23;20334;-90
2023/07/03 10:00:49;;;;;;;0.63;0.63;;;;;;;24.51;97.32;99806.13;6096908;23;20021;-92
2023/07/03 10:03:23;;;;;;;1.05;0.68;;;;;;;24.37;98.57;99813.06;6121575;23;20092;-92
2023/07/03 10:05:48;;;;;;;0.82;0.82;;;;;;;24.30;100.00;99802.34;6121346;23;20025;-92
2023/07/03 10:08:19;;;;;;;4.78;1.40;;;;;;;24.30;100.00;99817.28;6097337;23;20335;-92
2023/07/03 10:10:45;;;;;;;0.60;0.55;;;;;;;24.10;100.00;99810.03;6097237;23;20021;-92
2023/07/03 10:13:24;;;;;;;0.50;0.50;;;;;;;23.85;100.00;99817.09;6121873;23;20425;-92
2023/07/03 10:15:51;;;;;;;3.85;2.15;;;;;;;23.77;100.00;99824.66;6072623;23;20450;-92
2023/07/03 10:18:31;;;;;;;5.25;0.60;;;;;;;23.68;100.00;99817.31;6097940;23;20321;-92
2023/07/03 10:20:58;;;;;;;2.30;1.30;;;;;;;23.61;100.00;99805.81;6120935;23;20026;-92
2023/07/03 10:23:28;;;;;;;1.23;0.75;;;;;;;23.80;100.00;99811.50;6097990;23;20387;-92
2023/07/03 10:25:57;;;;;;;0.98;0.55;;;;;;;23.87;100.00;99811.66;6096628;23;20023;-93
2023/07/03 10:28:34;;;;;;;1.67;1.33;;;;;;;24.00;100.00;99819.47;6122827;23;20009;-94
2023/07/03 10:31:05;;;;;;;1.38;1.27;;;;;;;24.03;100.00;99819.16;6121385;23;20052;-94
2023/07/03 10:33:42;;;;;;;1.02;0.75;;;;;;;23.94;100.00;99815.97;6098710;23;20023;-93
2023/07/03 10:36:11;;;;;;;0.57;0.57;;;;;;;23.97;100.00;99820.56;6097516;23;20014;-93
2023/07/03 10:38:55;;;;;;;4.43;1.83;;;;;;;24.11;100.00;99825.75;6098539;23;20009;-93
2023/07/03 10:41:29;;;;;;;1.35;1.25;;;;;;;24.02;100.00;99834.63;6123885;23;20094;-94
2023/07/03 10:43:56;;;;;;;0.77;0.77;;;;;;;23.82;100.00;99815.31;6121034;23;20017;-93
2023/07/03 10:46:37;;;;;;;0.80;0.80;;;;;;;23.86;100.00;99809.38;6121206;23;20024;-94
2023/07/03 10:49:06;;;;;;;0.85;0.52;;;;;;;23.90;100.00;99824.00;6096695;23;20033;-94
2023/07/03 10:51:43;;;;;;;0.40;0.40;;;;;;;23.60;100.00;99810.72;6098188;23;20104;-93
2023/07/03 10:54:31;;;;;;;0.68;0.68;;;;;;;23.35;100.00;99811.22;6146227;23;20022;-93
2023/07/03 10:56:59;;;;;;;0.95;0.63;;;;;;;23.43;100.00;99834.81;6097127;23;20052;-94
2023/07/03 10:59:33;;;;;;;1.00;0.75;;;;;;;23.27;100.00;99832.91;6121699;23;20092;-94
2023/07/03 11:02:11;;;;;;;3.13;0.93;;;;;;;23.18;100.00;99817.81;6075460;23;20020;-95
2023/07/03 11:05:02;;;;;;;2.90;1.13;;;;;;;23.15;100.00;99816.03;6099167;23;20040;-94
2023/07/03 11:07:37;;;;;;;1.77;1.30;;;;;;;23.18;100.00;99814.97;6124542;23;20040;-94
2023/07/03 11:10:05;;;;;;;0.90;0.65;;;;;;;23.18;100.00;99809.31;6123955;23;20105;-92
2023/07/03 11:12:37;;;;;;;0.47;0.47;;;;;;;23.10;100.00;99810.44;6150833;23;20086;-93
2023/07/03 13:25:52;;;;;;;1.23;1.13;;;;;;;25.33;76.16;99731.44;6149807;23;20092;-90
2023/07/03 13:28:21;;;;;;;2.53;1.52;;;;;;;25.10;78.45;99716.19;6077416;23;20014;-90
2023/07/03 13:31:03;;;;;;;5.15;1.85;;;;;;;25.24;81.99;99701.44;6076226;23;20028;-90
2023/07/03 13:33:29;;;;;;;2.05;1.25;;;;;;;25.29;83.88;99728.19;6077304;23;20072;-90
2023/07/03 13:35:55;;;;;;;1.08;1.00;;;;;;;25.33;84.32;99715.19;6076582;23;20108;-94
2023/07/03 13:38:23;;;;;;;1.67;1.40;;;;;;;25.47;83.78;99718.78;6102183;23;20009;-94
2023/07/03 13:40:51;;;;;;;3.85;1.52;;;;;;;25.51;78.04;99720.00;6101034;23;20017;-93
2023/07/03 13:43:20;;;;;;;1.88;1.75;;;;;;;25.44;77.58;99703.59;6077964;23;20009;-93
2023/07/03 13:45:46;;;;;;;4.60;1.50;;;;;;;25.49;75.61;99704.78;6099794;23;20025;-93
2023/07/03 13:48:11;;;;;;;1.58;0.68;;;;;;;25.48;75.03;99703.25;6096871;23;20440;-90
2023/07/03 13:50:37;;;;;;;0.55;0.55;;;;;;;25.52;73.40;99710.16;6096711;23;20010;-89
2023/07/03 13:53:02;;;;;;;1.98;1.85;;;;;;;25.73;71.17;99730.13;6097572;23;20048;-90
2023/07/03 13:55:28;;;;;;;1.33;1.17;;;;;;;25.51;71.59;99713.53;6121486;23;20001;-89
2023/07/03 13:57:54;;;;;;;0.82;0.80;;;;;;;25.29;72.48;99699.78;6096764;23;20013;-90
2023/07/03 14:00:19;;;;;;;1.08;0.98;;;;;;;25.42;73.09;99728.94;6098012;23;20044;-90
2023/07/03 14:02:45;;;;;;;1.55;1.25;;;;;;;25.41;71.94;99687.66;6120651;23;20017;-90
2023/07/03 14:05:10;;;;;;;0.88;0.75;;;;;;;25.60;73.50;99713.09;6129421;23;20028;-90
2023/07/03 14:07:36;;;;;;;1.88;1.15;;;;;;;25.70;73.09;99711.34;6129835;23;20019;-89
2023/07/03 14:10:02;;;;;;;0.80;0.80;;;;;;;25.77;72.49;99722.03;6153084;23;20091;-90
2023/07/03 14:12:28;;;;;;;1.83;1.13;;;;;;;25.58;71.32;99721.41;6129449;23;20016;-90
2023/07/03 14:14:53;;;;;;;1.02;1.00;;;;;;;25.28;73.02;99698.25;6128488;23;20012;-90
2023/07/03 14:17:19;;;;;;;2.25;1.23;;;;;;;25.23;72.32;99693.47;6154171;23;20507;-90
2023/07/03 14:19:44;;;;;;;1.95;1.33;;;;;;;25.36;74.80;99704.81;6154414;23;20013;-90
2023/07/03 14:22:10;;;;;;;0.68;0.68;;;;;;;25.44;74.20;99708.50;6128636;23;20083;-89
2023/07/03 14:24:36;;;;;;;3.13;2.33;;;;;;;25.45;72.53;99710.03;6129311;23;20013;-90
2023/07/03 14:27:01;;;;;;;1.00;0.90;;;;;;;25.52;68.12;99717.88;6154208;23;20546;-91
2023/07/03 14:29:27;;;;;;;1.23;1.05;;;;;;;25.33;66.92;99681.13;6180401;23;20428;-91
2023/07/03 14:31:53;;;;;;;1.05;1.05;;;;;;;25.67;70.07;99694.63;6153314;23;20339;-90
2023/07/03 14:34:18;;;;;;;1.15;1.15;;;;;;;25.61;66.44;99676.94;6154246;23;20036;-90
2023/07/03 14:36:44;;;;;;;5.55;1.13;;;;;;;25.86;66.49;99715.13;6153773;23;20458;-90
2023/07/03 14:39:09;;;;;;;1.20;1.10;;;;;;;25.79;68.15;99671.13;6153979;23;20036;-90
2023/07/03 14:41:35;;;;;;;1.55;1.42;;;;;;;25.94;69.60;99668.44;6153707;23;20442;-91
2023/07/03 14:44:01;;;;;;;2.05;1.63;;;;;;;25.97;68.31;99669.38;6129605;23;20017;-91
2023/07/03 14:46:27;;;;;;;2.38;1.88;;;;;;;26.17;68.24;99682.84;6153518;23;20087;-90
2023/07/03 14:48:52;;;;;;;1.77;1.67;;;;;;;26.23;69.95;99679.91;6153819;23;20365;-90
2023/07/03 14:51:18;;;;;;;1.30;1.20;;;;;;;26.25;67.63;99700.00;6153604;23;20013;-90
2023/07/03 14:53:44;;;;;;;1.23;1.15;;;;;;;26.13;67.89;99690.19;6153785;23;20375;-90
2023/07/03 14:56:09;;;;;;;1.73;1.23;;;;;;;26.28;66.88;99696.09;6152573;23;20079;-91
2023/07/03 14:58:35;;;;;;;2.63;1.05;;;;;;;26.18;65.96;99678.69;6154250;23;20176;-91
2023/07/03 15:01:02;;;;;;;1.10;1.00;;;;;;;26.19;66.34;99674.59;6152788;23;20079;-93
2023/07/03 15:03:28;;;;;;;11.88;1.45;;;;;;;26.52;65.35;99690.03;6105015;23;20099;-91
2023/07/03 15:05:54;;;;;;;1.70;1.60;;;;;;;26.39;69.10;99684.44;6153278;23;20032;-92